createdAt,value
2018-09-02T00:00:40.215Z,52.10
2018-09-02T00:03:07.724Z,52.60
2018-09-02T00:05:35.403Z,51.80
2018-09-02T00:08:02.912Z,51.80
2018-09-02T00:10:31.097Z,51.90
2018-09-02T00:12:58.740Z,52.30
2018-09-02T00:15:26.220Z,52.40
2018-09-02T00:17:53.766Z,52.70
2018-09-02T00:20:21.371Z,53.10
2018-09-02T00:22:48.849Z,53.10
2018-09-02T00:25:16.373Z,53.70
2018-09-02T00:27:43.821Z,53.60
2018-09-02T00:30:11.390Z,53.60
2018-09-02T00:32:38.867Z,52.90
2018-09-02T00:35:06.544Z,52.90
2018-09-02T00:37:33.950Z,52.60
2018-09-02T00:40:01.416Z,52.70
2018-09-02T00:42:28.979Z,52.40
2018-09-02T00:44:56.542Z,52.30
2018-09-02T00:47:24.094Z,52.40
2018-09-02T00:49:51.611Z,52.40
2018-09-02T00:52:19.215Z,52.40
2018-09-02T00:54:46.866Z,52.30
2018-09-02T00:57:14.405Z,52.50
2018-09-02T00:59:41.944Z,52.50
2018-09-02T01:02:09.488Z,52.50
2018-09-02T01:04:36.978Z,52.50
2018-09-02T01:07:04.688Z,52.50
2018-09-02T01:09:32.115Z,52.50
2018-09-02T01:11:59.832Z,52.70
2018-09-02T01:14:27.297Z,52.80
2018-09-02T01:16:54.829Z,52.90
2018-09-02T01:19:22.385Z,53.00
2018-09-02T01:21:49.940Z,53.10
2018-09-02T01:24:17.570Z,53.20
2018-09-02T01:26:45.127Z,53.20
2018-09-02T01:29:13.184Z,52.90
2018-09-02T01:31:40.689Z,52.40
2018-09-02T01:34:08.243Z,52.30
2018-09-02T01:36:35.806Z,52.20
2018-09-02T01:39:04.276Z,51.90
2018-09-02T01:41:31.947Z,52.50
2018-09-02T01:43:59.461Z,51.90
2018-09-02T01:46:27.313Z,51.70
2018-09-02T01:48:54.820Z,51.60
2018-09-02T01:51:22.320Z,51.60
2018-09-02T01:53:50.127Z,51.50
2018-09-02T01:56:17.942Z,51.40
2018-09-02T01:58:45.386Z,51.80
2018-09-02T02:01:12.958Z,51.60
2018-09-02T02:03:40.506Z,51.80
2018-09-02T02:06:08.217Z,51.80
2018-09-02T02:08:35.735Z,52.00
2018-09-02T02:11:03.281Z,52.00
2018-09-02T02:13:31.135Z,52.20
2018-09-02T02:15:58.761Z,52.40
2018-09-02T02:18:26.319Z,52.40
2018-09-02T02:20:53.804Z,52.10
2018-09-02T02:23:21.351Z,52.00
2018-09-02T02:25:48.935Z,52.20
2018-09-02T02:28:16.442Z,52.40
2018-09-02T02:30:43.996Z,52.40
2018-09-02T02:33:11.613Z,52.50
2018-09-02T02:35:39.183Z,52.60
2018-09-02T02:38:07.435Z,52.70
2018-09-02T02:40:35.189Z,52.70
2018-09-02T02:43:02.770Z,52.80
2018-09-02T02:45:30.303Z,52.60
2018-09-02T02:47:57.780Z,52.70
2018-09-02T02:50:25.533Z,52.70
2018-09-02T02:52:58.711Z,52.80
2018-09-02T02:55:26.279Z,53.00
2018-09-02T02:57:53.774Z,52.90
2018-09-02T03:00:21.339Z,53.00
2018-09-02T03:02:48.914Z,52.70
2018-09-02T03:05:16.380Z,52.70
2018-09-02T03:07:43.912Z,52.80
2018-09-02T03:10:11.530Z,52.90
2018-09-02T03:12:38.948Z,52.90
2018-09-02T03:15:06.529Z,53.00
2018-09-02T03:17:34.080Z,53.00
2018-09-02T03:20:01.631Z,53.00
2018-09-02T03:22:29.292Z,53.20
2018-09-02T03:24:56.889Z,53.30
2018-09-02T03:27:24.641Z,53.60
2018-09-02T03:29:53.515Z,53.40
2018-09-02T03:32:20.946Z,53.60
2018-09-02T03:34:48.539Z,53.90
2018-09-02T03:37:16.227Z,53.70
2018-09-02T03:39:43.884Z,53.80
2018-09-02T03:42:11.404Z,53.80
2018-09-02T03:44:39.121Z,53.80
2018-09-02T03:47:08.345Z,54.00
2018-09-02T03:49:35.957Z,54.10
2018-09-02T03:52:03.444Z,54.00
2018-09-02T03:54:30.915Z,53.90
2018-09-02T03:56:58.436Z,53.90
2018-09-02T03:59:27.760Z,54.10
2018-09-02T04:04:39.119Z,54.30
2018-09-02T04:07:06.705Z,54.00
2018-09-02T04:09:34.140Z,54.10
2018-09-02T04:12:01.646Z,54.40
2018-09-02T04:14:29.159Z,54.40
2018-09-02T04:16:56.606Z,54.50
2018-09-02T04:19:24.039Z,54.50
2018-09-02T04:21:51.618Z,54.40
2018-09-02T04:24:19.103Z,54.50
2018-09-02T04:26:46.594Z,54.20
2018-09-02T04:29:14.167Z,54.70
2018-09-02T04:31:41.724Z,54.40
2018-09-02T04:34:09.127Z,54.60
2018-09-02T04:36:36.722Z,54.60
2018-09-02T04:39:06.902Z,55.10
2018-09-02T04:41:34.461Z,55.20
2018-09-02T04:44:01.927Z,55.40
2018-09-02T04:46:29.817Z,55.50
2018-09-02T04:48:57.272Z,55.70
2018-09-02T04:51:24.816Z,55.80
2018-09-02T04:53:52.399Z,56.00
2018-09-02T04:56:19.834Z,55.90
2018-09-02T04:58:47.281Z,56.20
2018-09-02T05:01:14.994Z,56.30
2018-09-02T05:03:42.446Z,56.30
2018-09-02T05:06:10.739Z,56.30
2018-09-02T05:08:38.392Z,56.40
2018-09-02T05:11:05.965Z,56.50
2018-09-02T05:13:33.583Z,56.70
2018-09-02T05:16:01.140Z,56.60
2018-09-02T05:18:32.046Z,56.50
2018-09-02T05:20:59.573Z,56.50
2018-09-02T05:23:27.073Z,56.80
2018-09-02T05:25:55.244Z,57.10
2018-09-02T05:28:22.675Z,57.00
2018-09-02T05:30:50.349Z,57.10
2018-09-02T05:33:17.874Z,57.20
2018-09-02T05:35:45.391Z,57.30
2018-09-02T05:38:12.884Z,57.40
2018-09-02T05:40:40.802Z,57.40
2018-09-02T05:43:08.367Z,57.40
2018-09-02T05:45:35.948Z,57.40
2018-09-02T05:48:03.913Z,57.40
2018-09-02T05:50:31.695Z,57.60
2018-09-02T05:52:59.294Z,57.70
2018-09-02T05:55:26.748Z,57.70
2018-09-02T05:57:54.232Z,57.60
2018-09-02T06:00:21.779Z,58.00
2018-09-02T06:02:49.350Z,57.80
2018-09-02T06:05:21.402Z,57.90
2018-09-02T06:07:49.107Z,57.90
2018-09-02T06:10:16.619Z,58.00
2018-09-02T06:12:44.186Z,58.00
2018-09-02T06:15:11.652Z,57.80
2018-09-02T06:17:39.064Z,58.10
2018-09-02T06:20:06.608Z,58.30
2018-09-02T06:22:33.978Z,57.90
2018-09-02T06:25:01.547Z,58.00
2018-09-02T06:27:29.139Z,58.20
2018-09-02T06:29:56.818Z,58.20
2018-09-02T06:32:24.303Z,58.30
2018-09-02T06:34:51.792Z,58.30
2018-09-02T06:37:19.249Z,58.50
2018-09-02T06:39:46.783Z,58.40
2018-09-02T06:42:14.334Z,58.40
2018-09-02T06:44:41.882Z,58.40
2018-09-02T06:47:09.549Z,58.50
2018-09-02T06:49:37.100Z,58.30
2018-09-02T06:52:04.706Z,58.20
2018-09-02T06:54:32.225Z,58.10
2018-09-02T06:56:59.719Z,58.70
2018-09-02T06:59:27.755Z,58.30
2018-09-02T07:01:55.208Z,59.00
2018-09-02T07:04:22.678Z,58.10
2018-09-02T07:06:50.331Z,57.80
2018-09-02T07:09:17.827Z,57.60
2018-09-02T07:11:45.372Z,57.60
2018-09-02T07:14:13.051Z,57.30
2018-09-02T07:16:40.595Z,57.30
2018-09-02T07:19:08.157Z,57.20
2018-09-02T07:21:35.726Z,57.00
2018-09-02T07:24:03.197Z,57.20
2018-09-02T07:26:30.596Z,57.00
2018-09-02T07:28:58.110Z,57.00
2018-09-02T07:31:25.502Z,56.70
2018-09-02T07:33:52.883Z,56.60
2018-09-02T07:36:20.487Z,56.30
2018-09-02T07:38:48.073Z,56.40
2018-09-02T07:41:15.515Z,56.30
2018-09-02T07:43:43.060Z,55.90
2018-09-02T07:46:10.484Z,55.90
2018-09-02T07:48:37.980Z,56.00
2018-09-02T07:51:05.535Z,55.70
2018-09-02T07:53:33.037Z,55.30
2018-09-02T07:56:00.483Z,55.40
2018-09-02T07:58:28.017Z,55.40
2018-09-02T08:00:55.612Z,55.50
2018-09-02T08:03:23.171Z,55.30
2018-09-02T08:05:50.715Z,55.30
2018-09-02T08:08:18.346Z,55.40
2018-09-02T08:10:45.831Z,55.50
2018-09-02T08:13:13.740Z,56.20
2018-09-02T08:15:41.198Z,55.40
2018-09-02T08:18:08.714Z,55.40
2018-09-02T08:20:36.195Z,55.10
2018-09-02T08:23:03.843Z,55.30
2018-09-02T08:25:32.372Z,55.70
2018-09-02T08:27:59.922Z,55.50
2018-09-02T08:30:27.530Z,55.60
2018-09-02T08:33:12.970Z,55.90
2018-09-02T08:35:40.481Z,56.20
2018-09-02T08:41:10.563Z,56.20
2018-09-02T08:43:45.672Z,56.20
2018-09-02T08:46:14.261Z,56.20
2018-09-02T08:48:42.621Z,56.60
2018-09-02T08:51:10.751Z,56.10
2018-09-02T08:53:38.575Z,56.50
2018-09-02T08:56:12.884Z,56.40
2018-09-02T08:58:40.331Z,56.50
2018-09-02T09:01:07.841Z,56.70
2018-09-02T09:03:35.302Z,56.50
2018-09-02T09:06:02.797Z,56.90
2018-09-02T09:08:30.550Z,57.10
2018-09-02T09:10:59.172Z,57.00
2018-09-02T09:13:26.674Z,57.00
2018-09-02T09:15:54.142Z,56.90
2018-09-02T09:18:21.653Z,56.40
2018-09-02T09:20:49.035Z,56.40
2018-09-02T09:23:16.617Z,55.60
2018-09-02T09:25:44.205Z,55.70
2018-09-02T09:28:26.876Z,55.00
2018-09-02T09:30:54.447Z,55.20
2018-09-02T09:33:21.994Z,55.00
2018-09-02T09:35:55.844Z,55.10
2018-09-02T09:38:23.589Z,54.60
2018-09-02T09:40:53.310Z,54.50
2018-09-02T09:43:21.901Z,54.50
2018-09-02T09:45:52.722Z,54.80
2018-09-02T09:48:20.317Z,54.70
2018-09-02T09:50:48.149Z,54.80
2018-09-02T09:56:19.130Z,55.00
2018-09-02T09:58:47.220Z,54.80
2018-09-02T10:01:14.910Z,54.90
2018-09-02T10:03:43.221Z,55.00
2018-09-02T10:06:10.749Z,54.90
2018-09-02T10:08:38.272Z,55.30
2018-09-02T10:11:05.966Z,55.60
2018-09-02T10:13:33.459Z,55.70
2018-09-02T10:16:00.982Z,56.10
2018-09-02T10:18:28.454Z,56.30
2018-09-02T10:20:56.184Z,55.80
2018-09-02T10:23:23.778Z,56.50
2018-09-02T10:25:51.288Z,56.90
2018-09-02T10:28:18.748Z,57.30
2018-09-02T10:30:46.389Z,57.60
2018-09-02T10:33:13.957Z,58.10
2018-09-02T10:35:41.420Z,57.90
2018-09-02T10:38:08.915Z,57.90
2018-09-02T10:40:36.473Z,58.10
2018-09-02T10:43:04.142Z,58.00
2018-09-02T10:45:31.737Z,58.40
2018-09-02T10:47:59.274Z,58.30
2018-09-02T10:53:04.775Z,58.80
2018-09-02T10:55:32.378Z,58.80
2018-09-02T10:58:00.039Z,59.10
2018-09-02T11:00:27.600Z,59.10
2018-09-02T11:02:55.163Z,59.50
2018-09-02T11:05:22.595Z,59.70
2018-09-02T11:07:50.102Z,59.70
2018-09-02T11:10:17.728Z,59.80
2018-09-02T11:12:45.511Z,59.80
2018-09-02T11:15:16.336Z,59.80
2018-09-02T11:17:44.036Z,60.00
2018-09-02T11:20:11.607Z,60.10
2018-09-02T11:22:39.098Z,60.10
2018-09-02T11:25:06.587Z,60.00
2018-09-02T11:27:34.166Z,60.20
2018-09-02T11:30:01.662Z,61.00
2018-09-02T11:32:29.746Z,61.00
2018-09-02T11:34:57.418Z,60.70
2018-09-02T11:37:25.008Z,60.80
2018-09-02T11:39:52.597Z,60.80
2018-09-02T11:42:20.156Z,61.20
2018-09-02T11:44:47.727Z,61.00
2018-09-02T11:47:15.270Z,60.80
2018-09-02T11:49:42.737Z,60.80
2018-09-02T11:52:10.372Z,61.00
2018-09-02T11:54:37.871Z,60.80
2018-09-02T11:57:05.377Z,60.80
2018-09-02T11:59:32.872Z,61.00
2018-09-02T12:02:00.382Z,61.00
2018-09-02T12:04:27.873Z,61.10
2018-09-02T12:06:55.297Z,61.40
2018-09-02T12:09:22.869Z,61.10
2018-09-02T12:11:50.460Z,61.30
2018-09-02T12:14:17.879Z,61.40
2018-09-02T12:16:45.369Z,61.70
2018-09-02T12:19:13.851Z,61.70
2018-09-02T12:21:41.376Z,61.60
2018-09-02T12:24:08.911Z,62.00
2018-09-02T12:27:01.118Z,62.20
2018-09-02T12:29:28.608Z,62.00
2018-09-02T12:32:00.003Z,62.00
2018-09-02T12:37:06.030Z,62.10
2018-09-02T12:39:40.340Z,62.50
2018-09-02T12:42:10.219Z,62.40
2018-09-02T12:44:37.837Z,62.30
2018-09-02T12:47:05.435Z,62.50
2018-09-02T12:52:39.848Z,62.50
2018-09-02T12:55:12.538Z,62.20
2018-09-02T12:57:40.854Z,62.30
2018-09-02T13:00:09.809Z,62.30
2018-09-02T13:02:38.389Z,62.00
2018-09-02T13:08:13.182Z,62.00
2018-09-02T13:10:40.684Z,62.00
2018-09-02T13:16:15.477Z,61.80
2018-09-02T13:18:44.706Z,61.70
2018-09-02T13:27:35.310Z,62.00
2018-09-02T13:30:25.236Z,61.80
2018-09-02T13:33:07.349Z,61.70
2018-09-02T13:35:35.031Z,61.30
2018-09-02T13:38:02.546Z,61.40
2018-09-02T13:42:14.564Z,61.10
2018-09-02T13:45:01.912Z,61.10
2018-09-02T13:47:29.428Z,61.10
2018-09-02T13:50:13.540Z,61.30
2018-09-02T14:30:46.116Z,61.30
2018-09-02T14:33:39.388Z,63.90
2018-09-02T14:36:06.893Z,64.40
2018-09-02T14:38:34.348Z,64.30
2018-09-02T14:41:02.523Z,64.70
2018-09-02T14:43:31.114Z,65.00
2018-09-02T14:45:58.648Z,65.40
2018-09-02T14:48:26.069Z,65.30
2018-09-02T14:50:53.724Z,66.00
2018-09-02T14:53:21.546Z,66.90
2018-09-02T14:55:49.029Z,67.50
2018-09-02T15:01:10.105Z,69.10
2018-09-02T15:07:00.620Z,71.40
2018-09-02T15:09:30.693Z,71.10
2018-09-02T15:15:01.300Z,71.30
2018-09-02T15:17:28.868Z,70.90
2018-09-02T15:19:56.975Z,71.20
2018-09-02T15:22:24.473Z,70.90
2018-09-02T15:25:08.327Z,71.10
2018-09-02T15:27:58.389Z,71.00
2018-09-02T15:33:32.070Z,71.50
2018-09-02T15:35:59.460Z,71.80
2018-09-02T15:56:24.251Z,71.60
2018-09-02T15:58:51.783Z,71.50
2018-09-02T16:01:19.258Z,71.30
2018-09-02T16:03:46.816Z,71.60
2018-09-02T16:06:14.400Z,71.80
2018-09-02T16:08:42.583Z,72.20
2018-09-02T16:11:33.578Z,72.20
2018-09-02T16:14:01.810Z,72.40
2018-09-02T16:16:29.290Z,72.20
2018-09-02T16:18:58.256Z,72.50
2018-09-02T16:21:25.731Z,72.20
2018-09-02T16:23:53.289Z,72.30
2018-09-02T16:26:20.828Z,72.30
2018-09-02T16:28:48.290Z,72.60
2018-09-02T16:31:16.166Z,72.40
2018-09-02T16:33:43.669Z,72.60
2018-09-02T16:36:31.185Z,72.40
2018-09-02T16:38:59.116Z,72.10
2018-09-02T16:41:26.693Z,72.40
2018-09-02T16:44:06.260Z,72.60
2018-09-02T16:46:33.996Z,73.00
2018-09-02T16:49:01.607Z,73.10
2018-09-02T16:51:34.237Z,73.30
2018-09-02T16:54:01.734Z,73.30
2018-09-02T16:56:29.271Z,73.40
2018-09-02T16:59:05.451Z,73.70
2018-09-02T17:01:33.219Z,74.10
2018-09-02T17:04:03.666Z,74.40
2018-09-02T17:06:36.175Z,74.10
2018-09-02T17:09:17.564Z,73.70
2018-09-02T17:11:45.486Z,73.60
2018-09-02T17:14:12.962Z,73.90
2018-09-02T17:16:40.421Z,73.90
2018-09-02T17:19:12.297Z,73.90
2018-09-02T17:21:40.016Z,74.00
2018-09-02T17:24:09.154Z,74.10
2018-09-02T17:26:36.807Z,74.00
2018-09-02T17:29:04.584Z,73.90
2018-09-02T17:31:32.142Z,74.30
2018-09-02T17:33:59.582Z,74.30
2018-09-02T17:36:27.036Z,74.40
2018-09-02T17:38:54.587Z,74.50
2018-09-02T17:41:22.134Z,74.60
2018-09-02T17:43:49.589Z,74.40
2018-09-02T17:46:17.055Z,74.40
2018-09-02T17:48:44.522Z,74.40
2018-09-02T17:51:11.953Z,74.70
2018-09-02T17:53:41.473Z,74.40
2018-09-02T17:56:09.066Z,74.90
2018-09-02T17:58:36.670Z,75.20
2018-09-02T18:01:05.005Z,75.30
2018-09-02T18:03:33.753Z,75.30
2018-09-02T18:06:01.112Z,75.30
2018-09-02T18:08:28.966Z,75.10
2018-09-02T18:10:56.398Z,75.30
2018-09-02T18:13:23.943Z,75.30
2018-09-02T18:15:51.378Z,75.50
2018-09-02T18:18:18.809Z,75.50
2018-09-02T18:20:46.412Z,75.50
2018-09-02T18:23:19.869Z,75.50
2018-09-02T18:26:07.378Z,75.70
2018-09-02T18:28:47.646Z,76.10
2018-09-02T18:31:21.222Z,76.10
2018-09-02T18:33:49.681Z,76.30
2018-09-02T18:36:22.704Z,76.30
2018-09-02T18:38:50.181Z,76.50
2018-09-02T18:41:19.819Z,76.60
2018-09-02T18:43:47.553Z,76.60
2018-09-02T18:46:15.616Z,77.50
2018-09-02T18:48:52.903Z,76.80
2018-09-02T18:51:33.014Z,76.80
2018-09-02T18:54:06.361Z,77.00
2018-09-02T18:56:33.859Z,77.00
2018-09-02T19:02:06.426Z,77.20
2018-09-02T19:04:37.796Z,77.10
2018-09-02T19:16:27.033Z,78.40
2018-09-02T19:18:59.969Z,78.60
2018-09-02T19:21:30.418Z,78.40
2018-09-02T19:27:00.241Z,79.10
2018-09-02T19:35:33.809Z,79.50
2018-09-02T19:41:10.819Z,79.70
2018-09-02T19:44:00.900Z,79.20
2018-09-02T19:46:28.530Z,79.10
2018-09-02T19:55:07.323Z,78.60
2018-09-02T19:58:46.282Z,77.80
2018-09-02T20:01:36.407Z,78.10
2018-09-02T20:04:05.656Z,78.40
2018-09-02T20:06:33.199Z,79.50
2018-09-02T20:09:00.724Z,80.30
2018-09-02T20:11:29.143Z,81.50
2018-09-02T20:13:56.693Z,83.40
2018-09-02T20:16:24.258Z,83.80
2018-09-02T20:18:52.207Z,84.90
2018-09-02T20:21:23.247Z,85.00
2018-09-02T20:23:50.839Z,86.50
2018-09-02T20:26:19.792Z,86.90
2018-09-02T20:28:47.459Z,87.30
2018-09-02T20:31:14.969Z,87.80
2018-09-02T20:33:42.621Z,87.20
2018-09-02T20:36:10.144Z,87.40
2018-09-02T20:41:31.169Z,85.80
2018-09-02T20:44:26.170Z,86.10
2018-09-02T20:46:56.703Z,85.80
2018-09-02T20:49:28.031Z,86.50
2018-09-02T20:51:57.050Z,86.80
2018-09-02T20:54:24.491Z,86.90
2018-09-02T20:56:52.098Z,87.10
2018-09-02T20:59:32.271Z,86.90
2018-09-02T21:02:07.708Z,86.80
2018-09-02T21:04:35.288Z,86.90
2018-09-02T21:07:02.746Z,86.90
2018-09-02T21:09:41.786Z,87.90
2018-09-02T21:12:09.435Z,87.90
2018-09-02T21:14:37.076Z,88.00
2018-09-02T21:17:04.547Z,87.90
2018-09-02T21:19:32.658Z,88.10
2018-09-02T21:22:23.990Z,88.30
2018-09-02T21:28:02.718Z,89.10
2018-09-02T21:30:30.413Z,89.10
2018-09-02T21:32:57.905Z,89.10
2018-09-02T21:35:26.183Z,89.10
2018-09-02T21:37:53.755Z,89.90
2018-09-02T21:40:21.446Z,89.80
2018-09-02T21:42:49.230Z,89.70
2018-09-02T21:45:22.399Z,89.80
2018-09-02T21:48:10.319Z,89.90
2018-09-02T21:50:38.147Z,90.00
2018-09-02T21:58:56.595Z,90.30
2018-09-02T22:01:24.568Z,90.20
2018-09-02T22:04:02.457Z,90.10
2018-09-02T22:06:30.267Z,90.20
2018-09-02T22:15:03.727Z,90.30
2018-09-02T22:20:35.457Z,90.40
2018-09-02T22:23:03.371Z,90.70
2018-09-02T22:34:39.938Z,90.70
2018-09-02T22:37:07.741Z,90.60
2018-09-02T22:39:52.224Z,90.60
2018-09-02T22:45:16.428Z,90.10
2018-09-02T22:47:44.319Z,90.30
2018-09-02T22:50:13.036Z,90.00
2018-09-02T22:55:44.308Z,90.00
2018-09-02T22:58:11.810Z,90.00
2018-09-02T23:09:40.652Z,90.40
2018-09-02T23:12:11.041Z,90.20
2018-09-02T23:14:38.607Z,90.30
2018-09-02T23:20:21.236Z,91.10
2018-09-02T23:22:48.904Z,90.80
2018-09-02T23:25:16.768Z,90.70
2018-09-02T23:30:53.272Z,90.70
2018-09-02T23:33:20.912Z,90.50
2018-09-02T23:36:04.994Z,90.50
2018-09-02T23:41:22.603Z,90.70
2018-09-02T23:46:52.790Z,91.10
2018-09-02T23:49:20.496Z,90.80
2018-09-02T23:51:48.280Z,90.60
2018-09-02T23:54:16.789Z,90.70
2018-09-02T23:56:44.400Z,90.60
2018-09-02T23:59:12.011Z,90.60
